Time;durP1;ratioP1;P1;durP2;ratioP2;P2;SDS_P1;SDS_P2;PMS_P1;PMS_P2;Temp;Humidity;BMP_temperature;BMP_pressure;BME280_temperature;BME280_humidity;BME280_pressure;Samples;Min_cycle;Max_cycle;Signal;HPM_P1;HPM_P2
2024/04/05 00:01:06;;;;;;;6.50;4.20;;;;;;;12.36;83.40;99575.02;131056;1257;108818;-82
2024/04/05 00:04:28;;;;;;;7.40;4.30;;;;;;;12.41;83.32;99574.04;131026;1257;107530;-83
2024/04/05 00:07:34;;;;;;;6.50;4.30;;;;;;;12.46;83.39;99575.81;131012;1253;107366;-82
2024/04/05 00:10:40;;;;;;;6.60;4.30;;;;;;;12.49;83.52;99588.13;131063;1253;107761;-82
2024/04/05 00:13:45;;;;;;;6.10;3.90;;;;;;;12.50;83.19;99593.98;131133;1255;106894;-82
2024/04/05 00:16:52;;;;;;;7.20;4.20;;;;;;;12.49;83.37;99596.39;131187;1256;107654;-82
2024/04/05 00:19:57;;;;;;;5.40;3.50;;;;;;;12.47;83.96;99601.56;131159;1251;107539;-82
2024/04/05 00:23:03;;;;;;;6.00;3.80;;;;;;;12.45;83.93;99604.95;131093;1256;108691;-82
2024/04/05 00:26:09;;;;;;;6.40;3.50;;;;;;;12.46;83.96;99606.15;131125;1256;106161;-82
2024/04/05 00:29:15;;;;;;;6.10;3.80;;;;;;;12.49;84.13;99611.34;131212;1256;107834;-82
2024/04/05 00:32:20;;;;;;;4.60;2.90;;;;;;;12.46;84.35;99613.92;130693;1256;189211;-82
2024/04/05 00:35:25;;;;;;;5.60;2.80;;;;;;;12.43;84.81;99619.92;130856;1253;106642;-82
2024/04/05 00:38:30;;;;;;;3.70;2.30;;;;;;;12.34;84.96;99622.14;130985;1258;106740;-83
2024/04/05 00:41:35;;;;;;;4.60;2.50;;;;;;;12.31;84.95;99621.06;131080;1257;106386;-82
2024/04/05 00:44:41;;;;;;;5.50;3.00;;;;;;;12.33;85.00;99630.84;131038;1257;105949;-83
2024/04/05 00:47:46;;;;;;;3.10;2.60;;;;;;;12.35;84.98;99640.25;131027;1253;106316;-82
2024/04/05 00:50:53;;;;;;;4.30;2.80;;;;;;;12.34;84.97;99643.77;131040;1253;108552;-82
2024/04/05 00:54:00;;;;;;;4.20;3.00;;;;;;;12.32;85.14;99646.47;131062;1257;106667;-82
2024/04/05 00:57:06;;;;;;;4.50;2.70;;;;;;;12.29;85.39;99650.08;131002;1253;107734;-82
2024/04/05 01:00:13;;;;;;;3.00;2.60;;;;;;;12.25;85.62;99652.06;131024;1258;109058;-82
2024/04/05 01:03:19;;;;;;;4.50;2.60;;;;;;;12.26;85.61;99656.61;131017;1257;107506;-82
2024/04/05 01:06:24;;;;;;;2.80;2.20;;;;;;;12.26;85.81;99655.20;130963;1253;106689;-82
2024/04/05 01:09:30;;;;;;;2.90;2.10;;;;;;;12.23;85.88;99652.69;131011;1257;108845;-82
2024/04/05 01:12:35;;;;;;;3.90;1.80;;;;;;;12.17;86.12;99657.34;131064;1253;107600;-82
2024/04/05 01:15:41;;;;;;;1.80;1.30;;;;;;;12.12;85.76;99656.63;130935;1257;108184;-82
2024/04/05 01:18:47;;;;;;;2.50;1.70;;;;;;;12.11;85.82;99649.62;130966;1257;108683;-82
2024/04/05 01:21:54;;;;;;;2.30;1.50;;;;;;;12.13;85.84;99649.75;130975;1257;107044;-82
2024/04/05 01:24:59;;;;;;;3.70;1.80;;;;;;;12.14;85.83;99653.05;131120;1257;107940;-82
2024/04/05 01:28:15;;;;;;;2.70;1.50;;;;;;;12.13;85.95;99657.74;131068;1256;108704;-82
2024/04/05 01:31:20;;;;;;;2.60;1.50;;;;;;;12.10;85.74;99665.41;131071;1259;107035;-82
2024/04/05 01:34:25;;;;;;;1.70;1.30;;;;;;;12.09;85.94;99662.17;131079;1258;107996;-82
2024/04/05 01:37:30;;;;;;;2.60;1.50;;;;;;;12.07;86.02;99664.67;130999;1257;106760;-82
2024/04/05 01:40:36;;;;;;;2.70;1.90;;;;;;;12.09;86.08;99665.91;131014;1258;106926;-82
2024/04/05 01:43:41;;;;;;;3.00;1.80;;;;;;;12.11;85.96;99670.98;131078;1254;109506;-82
2024/04/05 01:46:46;;;;;;;2.40;1.40;;;;;;;12.11;85.88;99677.41;130837;1259;108740;-82
2024/04/05 01:49:52;;;;;;;2.50;1.70;;;;;;;12.09;86.15;99682.34;130862;1253;108694;-82
2024/04/05 01:52:58;;;;;;;2.60;1.60;;;;;;;12.06;86.25;99684.86;131015;1259;108875;-82
2024/04/05 01:56:04;;;;;;;2.50;1.50;;;;;;;12.03;86.31;99688.66;130984;1257;107612;-82
2024/04/05 01:59:10;;;;;;;2.60;1.50;;;;;;;12.03;86.29;99691.90;131004;1257;108687;-82
2024/04/05 02:02:15;;;;;;;1.80;1.30;;;;;;;12.05;86.41;99695.80;130985;1258;107236;-82
2024/04/05 02:05:20;;;;;;;2.30;1.30;;;;;;;12.05;86.05;99694.33;131011;1258;105873;-82
2024/04/05 02:08:25;;;;;;;2.50;1.20;;;;;;;12.02;86.15;99690.23;131016;1257;106638;-82
2024/04/05 02:11:31;;;;;;;2.00;1.10;;;;;;;11.97;86.31;99693.06;130996;1259;107818;-82
2024/04/05 02:14:36;;;;;;;2.40;1.20;;;;;;;11.91;85.98;99689.07;131040;1257;106526;-82
2024/04/05 02:17:41;;;;;;;3.00;0.90;;;;;;;11.87;86.23;99694.63;130995;1253;107781;-82
2024/04/05 02:20:56;;;;;;;2.30;1.20;;;;;;;11.84;86.37;99696.95;131027;1257;107732;-82
2024/04/05 02:24:02;;;;;;;1.30;1.10;;;;;;;11.83;86.27;99695.79;131010;1258;108093;-82
2024/04/05 02:27:07;;;;;;;2.10;1.20;;;;;;;11.84;86.18;99691.91;131138;1256;106303;-82
2024/04/05 02:30:12;;;;;;;3.00;1.40;;;;;;;11.85;86.32;99696.48;131021;1258;107546;-85
2024/04/05 02:33:18;;;;;;;2.90;1.30;;;;;;;11.78;86.32;99698.42;131325;1257;108567;-85
2024/04/05 02:36:23;;;;;;;1.40;0.90;;;;;;;11.70;86.48;99701.69;131180;1259;107588;-84
2024/04/05 02:39:28;;;;;;;1.30;0.90;;;;;;;11.62;86.50;99705.84;131037;1257;107205;-85
2024/04/05 02:42:33;;;;;;;2.00;1.00;;;;;;;11.56;86.34;99705.77;131132;1253;107326;-85
2024/04/05 02:45:39;;;;;;;2.80;1.00;;;;;;;11.53;86.20;99705.50;131219;1256;106808;-84
2024/04/05 02:48:44;;;;;;;3.70;1.30;;;;;;;11.51;86.21;99703.64;131381;1254;106512;-85
2024/04/05 02:51:49;;;;;;;1.80;1.10;;;;;;;11.47;86.37;99710.50;130998;1253;107588;-85
2024/04/05 02:54:54;;;;;;;3.50;1.20;;;;;;;11.42;86.47;99712.33;131017;1253;106600;-85
2024/04/05 02:58:00;;;;;;;1.60;1.00;;;;;;;11.33;86.45;99717.21;131047;1258;108419;-85
2024/04/05 03:01:05;;;;;;;1.50;1.20;;;;;;;11.24;86.49;99723.20;131021;1253;107003;-86
2024/04/05 03:04:10;;;;;;;2.00;1.30;;;;;;;11.18;86.37;99724.23;131017;1253;107904;-85
2024/04/05 03:07:16;;;;;;;1.80;1.20;;;;;;;11.12;86.41;99727.72;131011;1259;107709;-84
2024/04/05 03:10:21;;;;;;;2.70;1.40;;;;;;;11.08;86.41;99732.42;131006;1253;108128;-84
2024/04/05 03:13:26;;;;;;;2.30;1.10;;;;;;;11.04;86.55;99730.80;130952;1257;106946;-85
2024/04/05 03:16:32;;;;;;;2.60;1.30;;;;;;;10.96;86.35;99740.39;131023;1254;108127;-85
2024/04/05 03:19:39;;;;;;;2.50;1.20;;;;;;;10.87;86.77;99745.83;131049;1259;108453;-85
2024/04/05 03:22:46;;;;;;;2.30;1.30;;;;;;;10.78;86.76;99744.34;130980;1253;108347;-83
2024/04/05 03:25:51;;;;;;;2.50;1.40;;;;;;;10.72;87.20;99749.87;131033;1259;107591;-85
2024/04/05 03:28:56;;;;;;;2.00;1.60;;;;;;;10.69;87.29;99754.73;131002;1257;107790;-84
2024/04/05 03:32:04;;;;;;;2.00;1.40;;;;;;;10.67;87.08;99759.67;131008;1257;108906;-84
2024/04/05 03:35:09;;;;;;;1.70;1.40;;;;;;;10.66;87.10;99765.57;131073;1253;106545;-84
2024/04/05 03:38:14;;;;;;;3.20;1.90;;;;;;;10.62;87.25;99758.88;130968;1253;108649;-85
2024/04/05 03:41:19;;;;;;;1.90;1.40;;;;;;;10.57;87.33;99759.49;130998;1258;107527;-85
2024/04/05 03:44:25;;;;;;;2.80;1.60;;;;;;;10.53;87.40;99767.40;131030;1254;108344;-84
2024/04/05 03:47:30;;;;;;;3.20;1.70;;;;;;;10.51;87.10;99770.66;131035;1259;106720;-85
2024/04/05 03:50:35;;;;;;;3.00;1.80;;;;;;;10.51;87.20;99775.64;131008;1259;106336;-85
2024/04/05 03:53:41;;;;;;;3.00;1.70;;;;;;;10.51;87.40;99783.87;131063;1259;106240;-84
2024/04/05 03:56:46;;;;;;;3.70;2.00;;;;;;;10.47;87.19;99779.13;130953;1254;108453;-85
2024/04/05 03:59:51;;;;;;;3.00;1.90;;;;;;;10.41;87.11;99787.71;130949;1257;106770;-84
2024/04/05 04:02:57;;;;;;;2.20;1.70;;;;;;;10.36;87.26;99792.73;130828;1259;107592;-87
2024/04/05 04:06:02;;;;;;;1.70;1.40;;;;;;;10.33;87.24;99793.63;131019;1259;106615;-87
2024/04/05 04:09:07;;;;;;;1.90;1.70;;;;;;;10.32;87.30;99800.93;131040;1259;107069;-85
2024/04/05 04:12:13;;;;;;;3.50;1.90;;;;;;;10.32;87.48;99805.56;131040;1253;106774;-86
2024/04/05 04:15:19;;;;;;;4.20;2.30;;;;;;;10.31;87.25;99813.56;131112;1253;106584;-85
2024/04/05 04:18:25;;;;;;;3.00;2.00;;;;;;;10.25;87.35;99815.70;131069;1259;108697;-84
2024/04/05 04:21:31;;;;;;;2.70;1.50;;;;;;;10.19;87.18;99816.83;131056;1253;108942;-85
2024/04/05 04:24:36;;;;;;;4.00;1.90;;;;;;;10.20;87.07;99819.90;131057;1257;108678;-85
2024/04/05 04:27:42;;;;;;;4.00;2.10;;;;;;;10.23;87.42;99823.04;131061;1257;109096;-86
2024/04/05 04:30:47;;;;;;;3.60;2.00;;;;;;;10.26;87.42;99825.24;131068;1258;106549;-85
2024/04/05 04:33:53;;;;;;;3.40;2.10;;;;;;;10.26;86.82;99831.61;131357;1256;108803;-83
2024/04/05 04:36:59;;;;;;;4.60;2.30;;;;;;;10.27;87.01;99835.27;131043;1257;106747;-82
2024/04/05 04:40:05;;;;;;;5.40;2.70;;;;;;;10.25;86.87;99842.61;131421;1253;108769;-84
2024/04/05 04:43:11;;;;;;;18.40;11.90;;;;;;;10.24;86.91;99842.14;131231;1259;108608;-84
2024/04/05 04:46:18;;;;;;;4.60;2.80;;;;;;;10.29;87.22;99845.33;130989;1253;108857;-83
2024/04/05 04:49:24;;;;;;;2.60;1.90;;;;;;;10.43;87.37;99849.94;131136;1256;107352;-83
2024/04/05 04:52:29;;;;;;;2.80;1.90;;;;;;;10.58;87.17;99853.71;131172;1255;107874;-85
2024/04/05 04:55:34;;;;;;;2.90;1.40;;;;;;;10.70;87.12;99858.24;131152;1256;108692;-83
2024/04/05 04:58:40;;;;;;;3.60;1.50;;;;;;;10.82;86.88;99861.64;131074;1256;107513;-83
2024/04/05 05:01:45;;;;;;;3.40;1.20;;;;;;;10.89;86.78;99862.88;131121;1256;107479;-83
2024/04/05 05:04:50;;;;;;;3.00;1.20;;;;;;;10.97;86.65;99868.36;131086;1260;106965;-84
2024/04/05 05:07:55;;;;;;;5.10;1.40;;;;;;;11.09;86.76;99874.02;131044;1259;108731;-83
2024/04/05 05:11:00;;;;;;;2.90;2.20;;;;;;;11.21;86.53;99874.23;131088;1259;106598;-85
2024/04/05 05:14:06;;;;;;;2.90;1.70;;;;;;;11.32;86.32;99876.05;131234;1253;108441;-85
2024/04/05 05:17:11;;;;;;;2.50;1.50;;;;;;;11.42;86.24;99882.02;131443;1254;108719;-84
2024/04/05 05:20:21;;;;;;;2.00;1.60;;;;;;;11.50;86.17;99888.17;130969;1257;107598;-86
2024/04/05 05:23:27;;;;;;;2.70;1.50;;;;;;;11.57;85.83;99891.30;131089;1253;106927;-86
2024/04/05 05:26:32;;;;;;;2.50;1.30;;;;;;;11.56;85.76;99899.52;131063;1260;107731;-83
2024/04/05 05:29:37;;;;;;;3.20;1.40;;;;;;;11.57;85.77;99909.73;131094;1259;106826;-84
2024/04/05 05:32:43;;;;;;;2.90;1.30;;;;;;;11.57;85.48;99909.98;131067;1258;107727;-85
2024/04/05 05:35:48;;;;;;;4.40;1.50;;;;;;;11.54;85.71;99913.11;131047;1257;106628;-84
2024/04/05 05:38:53;;;;;;;4.10;1.30;;;;;;;11.57;85.78;99917.25;130988;1257;107132;-84
2024/04/05 05:41:59;;;;;;;2.20;1.40;;;;;;;11.62;85.59;99926.95;131141;1253;107693;-84
2024/04/05 05:45:05;;;;;;;2.70;1.60;;;;;;;11.65;85.33;99930.55;131047;1259;107700;-84
2024/04/05 05:48:10;;;;;;;1.90;1.20;;;;;;;11.68;85.54;99932.66;131069;1260;106627;-86
2024/04/05 05:51:15;;;;;;;3.00;1.70;;;;;;;11.71;85.38;99936.59;131003;1259;107950;-84
2024/04/05 05:54:20;;;;;;;4.90;2.50;;;;;;;11.74;85.40;99941.36;131020;1256;107723;-84
2024/04/05 05:57:25;;;;;;;2.50;1.30;;;;;;;11.74;84.83;99944.84;131021;1259;106517;-85
2024/04/05 06:00:31;;;;;;;7.50;1.90;;;;;;;11.72;85.08;99948.02;130977;1253;106957;-84
2024/04/05 06:03:36;;;;;;;3.70;1.50;;;;;;;11.70;84.86;99953.63;131050;1256;107896;-85
2024/04/05 06:06:42;;;;;;;2.70;1.50;;;;;;;11.70;85.03;99943.61;131001;1254;108539;-85
2024/04/05 06:09:54;;;;;;;3.50;1.50;;;;;;;11.72;84.99;99946.41;131028;1257;106943;-84
2024/04/05 06:13:01;;;;;;;2.90;1.90;;;;;;;11.75;84.64;99949.52;130982;1266;106507;-86
2024/04/05 06:16:08;;;;;;;2.60;1.40;;;;;;;11.75;84.61;99951.48;130946;1256;106695;-84
2024/04/05 06:19:13;;;;;;;2.90;1.80;;;;;;;11.76;84.77;99959.50;130976;1267;107103;-86
2024/04/05 06:22:18;;;;;;;2.60;1.70;;;;;;;11.83;84.85;99962.27;131021;1253;108411;-86
2024/04/05 06:25:23;;;;;;;2.80;1.50;;;;;;;11.94;84.86;99962.11;130958;1258;107300;-85
2024/04/05 06:28:29;;;;;;;3.80;1.50;;;;;;;12.09;84.75;99969.16;131029;1253;108307;-84
2024/04/05 06:31:35;;;;;;;3.30;1.60;;;;;;;12.25;84.45;99966.14;131014;1253;107262;-84
2024/04/05 06:34:44;;;;;;;2.20;1.50;;;;;;;12.41;84.10;99973.95;131048;1259;106635;-84
2024/04/05 06:37:49;;;;;;;3.80;1.60;;;;;;;12.50;83.90;99970.45;131000;1260;107898;-86
2024/04/05 06:40:58;;;;;;;3.10;1.50;;;;;;;12.55;83.69;99977.19;131028;1253;108734;-85
2024/04/05 06:44:03;;;;;;;3.10;1.50;;;;;;;12.60;83.63;99977.98;131072;1259;107893;-85
2024/04/05 06:47:10;;;;;;;4.30;1.50;;;;;;;12.63;83.10;99981.02;131010;1253;108732;-86
2024/04/05 06:50:15;;;;;;;2.60;1.40;;;;;;;12.73;83.23;99983.55;131138;1255;107770;-86
2024/04/05 06:53:24;;;;;;;3.10;1.50;;;;;;;12.85;83.47;99984.23;131072;1258;106492;-84
2024/04/05 06:56:29;;;;;;;2.30;1.60;;;;;;;13.00;82.74;99988.23;131044;1257;108447;-84
2024/04/05 06:59:35;;;;;;;2.40;1.60;;;;;;;13.10;82.61;99996.39;131049;1256;108684;-85
2024/04/05 07:02:40;;;;;;;4.10;1.60;;;;;;;13.18;82.34;100003.55;131056;1258;108647;-85
2024/04/05 07:05:45;;;;;;;4.70;2.10;;;;;;;13.18;81.55;100007.77;131030;1257;107257;-85
2024/04/05 07:08:51;;;;;;;6.40;2.20;;;;;;;13.19;82.04;100015.49;131007;1255;107644;-85
2024/04/05 07:11:58;;;;;;;3.60;1.70;;;;;;;13.39;82.22;100012.23;131016;1259;107966;-86
2024/04/05 07:15:05;;;;;;;6.50;3.40;;;;;;;13.61;80.76;100017.01;131102;1267;107772;-86
2024/04/05 07:18:10;;;;;;;2.70;1.90;;;;;;;13.81;81.94;100021.58;131029;1265;106426;-85
2024/04/05 07:21:16;;;;;;;5.50;2.10;;;;;;;14.00;80.05;100023.27;130994;1256;107353;-85
2024/04/05 07:24:22;;;;;;;5.90;2.80;;;;;;;14.14;80.61;100021.63;131033;1259;108269;-87
2024/04/05 07:27:27;;;;;;;3.60;1.70;;;;;;;14.26;80.31;100023.96;130848;1257;108654;-85
2024/04/05 07:30:33;;;;;;;3.00;1.50;;;;;;;14.31;80.63;100026.94;130991;1259;107781;-88
2024/04/05 07:33:38;;;;;;;2.60;1.60;;;;;;;14.38;80.63;100033.10;131022;1257;108554;-86
2024/04/05 07:36:44;;;;;;;5.30;2.40;;;;;;;14.35;78.35;100041.39;131022;1259;108643;-86
2024/04/05 07:39:52;;;;;;;2.80;2.00;;;;;;;14.26;79.16;100043.73;131057;1256;106730;-87
2024/04/05 07:42:57;;;;;;;3.60;1.80;;;;;;;14.42;79.98;100046.13;131100;1259;106544;-87
2024/04/05 07:46:02;;;;;;;2.50;1.50;;;;;;;14.64;79.62;100051.55;131056;1267;107797;-86
2024/04/05 07:49:09;;;;;;;2.30;1.50;;;;;;;14.79;79.43;100056.66;131056;1257;107732;-86
2024/04/05 07:52:14;;;;;;;3.30;1.70;;;;;;;14.93;77.77;100063.66;131016;1254;107869;-86
2024/04/05 07:55:20;;;;;;;3.00;1.50;;;;;;;15.07;78.57;100067.48;131022;1257;107208;-85
2024/04/05 07:58:25;;;;;;;5.00;1.50;;;;;;;15.21;78.18;100073.32;131053;1257;107801;-87
2024/04/05 08:01:31;;;;;;;3.10;1.90;;;;;;;15.30;77.98;100072.33;131027;1257;106643;-87
2024/04/05 08:04:36;;;;;;;2.40;1.50;;;;;;;15.31;76.87;100074.39;131007;1257;106495;-86
2024/04/05 08:07:42;;;;;;;2.80;1.70;;;;;;;15.34;77.82;100074.21;131052;1253;107587;-87
2024/04/05 08:10:47;;;;;;;2.80;1.70;;;;;;;15.29;77.10;100073.76;131020;1254;109460;-86
2024/04/05 08:13:53;;;;;;;2.30;1.30;;;;;;;15.23;77.77;100077.15;131047;1259;107040;-86
2024/04/05 08:16:58;;;;;;;2.20;1.40;;;;;;;15.21;77.20;100087.30;131093;1259;108569;-87
2024/04/05 08:20:05;;;;;;;3.40;1.60;;;;;;;15.25;77.66;100086.53;131087;1259;106179;-86
2024/04/05 08:23:10;;;;;;;1.80;1.40;;;;;;;15.27;76.70;100085.88;131043;1256;107894;-86
2024/04/05 08:26:15;;;;;;;2.60;1.40;;;;;;;15.11;76.80;100093.30;131068;1258;108845;-86
2024/04/05 08:29:20;;;;;;;4.00;2.10;;;;;;;14.94;76.30;100102.70;131071;1265;107790;-86
2024/04/05 08:32:26;;;;;;;2.90;1.90;;;;;;;14.71;76.16;100104.92;131044;1254;108478;-87
2024/04/05 08:35:31;;;;;;;3.30;1.90;;;;;;;14.53;76.53;100107.23;131061;1267;107017;-86
2024/04/05 08:38:36;;;;;;;3.60;2.30;;;;;;;14.37;76.51;100106.92;131047;1257;107892;-88
2024/04/05 08:41:47;;;;;;;3.40;2.40;;;;;;;14.22;76.47;100113.04;131008;1253;107777;-85
2024/04/05 08:44:53;;;;;;;5.20;2.40;;;;;;;14.15;76.34;100116.71;131084;1258;108702;-86
2024/04/05 08:48:01;;;;;;;3.60;2.30;;;;;;;14.09;76.20;100117.96;131005;1256;108799;-87
2024/04/05 08:51:09;;;;;;;3.30;2.20;;;;;;;14.06;76.33;100117.38;131057;1257;108743;-85
2024/04/05 08:54:14;;;;;;;4.50;2.10;;;;;;;14.14;76.96;100118.23;131049;1256;108101;-87
2024/04/05 08:57:21;;;;;;;3.80;1.90;;;;;;;14.39;76.89;100114.27;131045;1258;106535;-85
2024/04/05 09:00:27;;;;;;;7.40;2.30;;;;;;;14.66;76.06;100116.05;131048;1267;108731;-87
2024/04/05 09:03:32;;;;;;;3.10;2.20;;;;;;;14.79;76.01;100120.66;130959;1257;108588;-87
2024/04/05 09:06:39;;;;;;;3.30;2.00;;;;;;;14.90;75.70;100115.38;130901;1257;108635;-87
2024/04/05 09:09:46;;;;;;;2.80;1.90;;;;;;;15.10;76.13;100112.06;130994;1257;106851;-86
2024/04/05 09:12:53;;;;;;;13.90;12.30;;;;;;;15.37;76.05;100109.84;131060;1254;107713;-87
2024/04/05 09:16:01;;;;;;;35.20;20.30;;;;;;;15.67;75.87;100109.65;131003;1267;108834;-86
2024/04/05 09:19:09;;;;;;;28.30;13.50;;;;;;;15.90;74.68;100113.27;131027;1259;107070;-86
2024/04/05 09:22:24;;;;;;;12.30;5.50;;;;;;;15.84;71.69;100117.93;131010;1259;107005;-87
2024/04/05 09:25:30;;;;;;;9.50;5.70;;;;;;;15.63;71.92;100117.95;131010;1267;107820;-87
2024/04/05 09:28:36;;;;;;;24.30;14.40;;;;;;;15.62;71.52;100117.45;131088;1257;108262;-86
2024/04/05 09:31:46;;;;;;;25.80;15.90;;;;;;;15.62;71.97;100116.10;131067;1257;108093;-86
2024/04/05 09:34:52;;;;;;;80.60;54.80;;;;;;;15.74;72.17;100115.77;130915;1259;107926;-85
2024/04/05 09:37:58;;;;;;;32.30;20.70;;;;;;;16.01;72.81;100112.05;131056;1257;108886;-86
2024/04/05 09:41:04;;;;;;;157.20;98.00;;;;;;;16.23;72.60;100113.95;131064;1261;106362;-84
2024/04/05 09:44:10;;;;;;;35.00;19.30;;;;;;;16.34;71.80;100113.88;131038;1260;107430;-85
2024/04/05 09:47:18;;;;;;;42.00;26.90;;;;;;;16.31;71.04;100114.94;131041;1265;107738;-87
2024/04/05 09:50:24;;;;;;;83.80;57.00;;;;;;;16.30;71.18;100113.06;130831;1257;108735;-85
2024/04/05 09:53:33;;;;;;;33.80;22.20;;;;;;;16.36;71.53;100113.91;130858;1257;107997;-87
2024/04/05 09:56:39;;;;;;;16.30;10.00;;;;;;;16.46;71.03;100112.17;130936;1257;106323;-85
2024/04/05 09:59:48;;;;;;;87.20;51.30;;;;;;;16.64;71.09;100106.55;131058;1257;108337;-85
2024/04/05 10:02:56;;;;;;;124.00;74.80;;;;;;;16.80;70.40;100106.55;131036;1254;107487;-85
2024/04/05 10:06:13;;;;;;;190.40;108.80;;;;;;;16.95;70.48;100096.57;131029;1255;108842;-86
2024/04/05 10:09:19;;;;;;;133.90;77.40;;;;;;;17.14;69.65;100102.15;131059;1267;107684;-87
2024/04/05 10:12:30;;;;;;;68.50;39.80;;;;;;;17.29;69.99;100101.88;131001;1260;108491;-85
2024/04/05 10:15:35;;;;;;;114.60;60.90;;;;;;;17.49;69.65;100099.47;131022;1260;107807;-85
2024/04/05 10:18:42;;;;;;;142.00;85.00;;;;;;;17.66;69.29;100097.36;131025;1256;108137;-86
2024/04/05 10:21:47;;;;;;;257.00;147.70;;;;;;;17.74;69.01;100102.45;131054;1257;107421;-85
2024/04/05 10:24:52;;;;;;;81.70;48.30;;;;;;;17.79;68.53;100098.56;131030;1267;106634;-86
2024/04/05 10:27:58;;;;;;;34.70;21.30;;;;;;;17.80;69.19;100105.04;131020;1260;107806;-86
2024/04/05 10:31:05;;;;;;;12.50;7.10;;;;;;;17.76;68.77;100107.90;131018;1258;108741;-86
2024/04/05 10:34:11;;;;;;;8.20;4.60;;;;;;;17.77;68.62;100101.38;130982;1255;107213;-85
2024/04/05 10:37:16;;;;;;;3.60;2.00;;;;;;;17.76;67.24;100105.77;131012;1257;106743;-86
2024/04/05 10:40:22;;;;;;;11.60;8.50;;;;;;;17.70;67.34;100106.33;131032;1258;106767;-85
2024/04/05 10:43:29;;;;;;;8.40;6.00;;;;;;;17.66;67.62;100108.48;131015;1257;108709;-85
2024/04/05 10:46:37;;;;;;;5.30;3.20;;;;;;;17.71;67.63;100109.21;131082;1254;107753;-85
2024/04/05 10:49:42;;;;;;;7.80;5.50;;;;;;;17.77;66.55;100109.30;130812;1266;108622;-85
2024/04/05 10:52:53;;;;;;;5.80;3.50;;;;;;;17.77;67.16;100110.18;130985;1255;107763;-85
2024/04/05 10:55:59;;;;;;;4.30;3.30;;;;;;;17.79;66.54;100109.11;131110;1256;108189;-84
2024/04/05 10:59:07;;;;;;;4.30;2.50;;;;;;;17.72;65.13;100109.80;130999;1267;107660;-85
2024/04/05 11:02:13;;;;;;;5.90;3.20;;;;;;;17.42;64.37;100114.92;131042;1267;107239;-85
2024/04/05 11:05:22;;;;;;;4.80;2.80;;;;;;;17.30;65.46;100122.30;131083;1257;106935;-85
2024/04/05 11:08:27;;;;;;;5.00;2.60;;;;;;;17.25;65.60;100128.41;131048;1255;108354;-85
2024/04/05 11:11:32;;;;;;;3.80;2.30;;;;;;;17.17;65.46;100129.90;131007;1267;107536;-85
2024/04/05 11:14:37;;;;;;;4.50;3.10;;;;;;;17.04;65.28;100132.65;131061;1257;108312;-85
2024/04/05 11:17:43;;;;;;;9.10;7.00;;;;;;;16.87;64.98;100137.85;131050;1255;107898;-85
2024/04/05 11:20:50;;;;;;;4.90;3.90;;;;;;;16.71;65.08;100143.06;130988;1267;107629;-85
2024/04/05 11:23:57;;;;;;;6.20;2.20;;;;;;;16.69;65.50;100137.83;131013;1258;107951;-85
2024/04/05 11:27:03;;;;;;;82.20;49.60;;;;;;;16.76;65.03;100135.86;131093;1257;106021;-85
2024/04/05 11:30:09;;;;;;;22.30;14.20;;;;;;;16.87;64.30;100139.14;131081;1258;107742;-85
2024/04/05 11:33:15;;;;;;;14.90;11.00;;;;;;;16.96;64.40;100136.96;131007;1257;106624;-85
2024/04/05 11:36:21;;;;;;;14.80;10.70;;;;;;;16.98;63.91;100137.59;130980;1254;108514;-85
2024/04/05 11:39:27;;;;;;;5.10;3.60;;;;;;;16.91;63.58;100135.06;130990;1258;106530;-85
2024/04/05 11:42:33;;;;;;;4.30;3.80;;;;;;;16.77;62.55;100136.36;131043;1254;108612;-85
2024/04/05 11:45:38;;;;;;;5.20;3.90;;;;;;;16.54;62.75;100136.80;131018;1256;107472;-85
2024/04/05 11:48:43;;;;;;;25.20;21.80;;;;;;;16.44;63.52;100134.44;131027;1257;107389;-85
2024/04/05 11:51:49;;;;;;;37.20;33.10;;;;;;;16.46;63.12;100134.75;131094;1258;108237;-85
2024/04/05 11:54:55;;;;;;;25.90;23.10;;;;;;;16.53;62.85;100136.91;131010;1267;105444;-85
2024/04/05 11:58:00;;;;;;;17.10;13.70;;;;;;;16.74;63.17;100134.97;131023;1267;108592;-85
2024/04/05 12:01:06;;;;;;;23.70;17.20;;;;;;;16.95;63.34;100134.34;131015;1257;107062;-85
2024/04/05 12:04:11;;;;;;;11.00;9.00;;;;;;;17.04;62.74;100142.41;131032;1266;108109;-85
2024/04/05 12:07:16;;;;;;;4.60;2.90;;;;;;;17.03;60.51;100146.95;131039;1254;108103;-85
2024/04/05 12:10:22;;;;;;;7.10;6.30;;;;;;;16.93;61.28;100151.48;131057;1254;107667;-85
2024/04/05 12:13:27;;;;;;;3.10;2.50;;;;;;;16.92;61.16;100150.33;131024;1257;107749;-85
2024/04/05 12:16:32;;;;;;;3.70;1.70;;;;;;;16.94;60.87;100154.05;130983;1254;107444;-85
2024/04/05 12:19:39;;;;;;;1.90;1.10;;;;;;;16.98;60.09;100152.14;131030;1257;108000;-85
2024/04/05 12:22:44;;;;;;;1.90;1.00;;;;;;;16.91;58.95;100154.92;131017;1257;107728;-85
2024/04/05 12:25:57;;;;;;;2.40;1.10;;;;;;;16.91;59.93;100157.16;131058;1255;106846;-85
2024/04/05 12:29:03;;;;;;;4.00;1.90;;;;;;;16.98;60.58;100157.50;131019;1256;108709;-85
2024/04/05 12:32:08;;;;;;;3.50;1.70;;;;;;;17.05;60.49;100158.88;130811;1256;258808;-85
2024/04/05 12:35:14;;;;;;;2.60;1.60;;;;;;;17.05;59.52;100156.59;131034;1254;107412;-85
2024/04/05 12:38:20;;;;;;;4.10;1.50;;;;;;;16.95;60.13;100161.42;131013;1257;108747;-85
2024/04/05 12:41:26;;;;;;;2.10;1.10;;;;;;;16.84;59.98;100164.79;131055;1257;107078;-85
2024/04/05 12:44:34;;;;;;;3.90;1.30;;;;;;;16.72;59.99;100163.83;131010;1258;107856;-85
2024/04/05 12:47:39;;;;;;;1.80;1.10;;;;;;;16.62;59.87;100168.65;131004;1255;108788;-86
2024/04/05 12:50:54;;;;;;;3.20;2.40;;;;;;;16.53;59.91;100164.46;131019;1254;106571;-85
2024/04/05 12:54:00;;;;;;;3.10;1.90;;;;;;;16.52;60.14;100162.60;131048;1254;108595;-84
2024/04/05 12:57:07;;;;;;;4.40;2.10;;;;;;;16.57;59.85;100159.48;131063;1254;106907;-84
2024/04/05 13:00:15;;;;;;;3.60;1.80;;;;;;;16.69;60.31;100159.63;131063;1257;108716;-85
2024/04/05 13:03:21;;;;;;;3.70;1.80;;;;;;;16.80;59.89;100159.13;131058;1257;107719;-85
2024/04/05 13:06:27;;;;;;;4.70;2.60;;;;;;;16.86;60.20;100152.55;130997;1257;106393;-85
2024/04/05 13:09:32;;;;;;;2.70;1.90;;;;;;;16.98;60.27;100146.02;131040;1257;107552;-85
2024/04/05 13:12:38;;;;;;;4.40;2.20;;;;;;;17.15;60.21;100142.58;131011;1254;108746;-86
2024/04/05 13:15:43;;;;;;;4.90;2.40;;;;;;;17.32;60.23;100142.88;131021;1254;108569;-85
2024/04/05 13:18:49;;;;;;;2.70;1.60;;;;;;;17.45;60.15;100141.66;131029;1254;107929;-85
2024/04/05 13:21:55;;;;;;;3.60;1.90;;;;;;;17.58;60.22;100134.79;131034;1257;106900;-85
2024/04/05 13:25:00;;;;;;;2.90;1.70;;;;;;;17.71;59.88;100133.58;131059;1257;107697;-86
2024/04/05 13:28:06;;;;;;;4.90;2.30;;;;;;;17.81;59.73;100127.39;130985;1254;107974;-85
2024/04/05 13:31:11;;;;;;;3.80;1.50;;;;;;;17.90;60.00;100120.66;131039;1257;108237;-85
2024/04/05 13:34:17;;;;;;;6.20;2.80;;;;;;;17.96;59.71;100114.27;131023;1257;108670;-85
2024/04/05 13:37:22;;;;;;;3.00;1.70;;;;;;;17.91;59.25;100112.23;131028;1258;107607;-85
2024/04/05 13:40:28;;;;;;;4.30;2.00;;;;;;;17.80;58.93;100114.55;130988;1256;107873;-85
2024/04/05 13:43:33;;;;;;;2.30;1.40;;;;;;;17.72;58.78;100110.66;131009;1254;106572;-85
2024/04/05 13:46:38;;;;;;;3.50;1.80;;;;;;;17.62;58.27;100116.02;131041;1254;106319;-85
2024/04/05 13:49:43;;;;;;;3.00;1.10;;;;;;;17.51;57.32;100120.64;131067;1254;107625;-85
2024/04/05 13:52:49;;;;;;;2.10;1.30;;;;;;;17.39;57.11;100117.31;130986;1257;107757;-85
2024/04/05 13:55:54;;;;;;;2.90;1.20;;;;;;;17.36;57.44;100116.09;131096;1253;108422;-85
2024/04/05 13:58:59;;;;;;;3.00;1.50;;;;;;;17.30;57.19;100117.98;131389;1257;107664;-85
2024/04/05 14:02:06;;;;;;;2.90;1.10;;;;;;;17.20;55.04;100115.04;131067;1255;107768;-85
2024/04/05 14:05:11;;;;;;;1.90;1.00;;;;;;;17.11;54.93;100114.86;130865;1257;106651;-85
2024/04/05 14:08:16;;;;;;;3.00;1.30;;;;;;;17.11;56.10;100114.45;130942;1256;106711;-85